sensor_id;sensor_type;location;lat;lon;timestamp;pressure;altitude;pressure_sealevel;temperature;humidity
72086;BME280;64750;52.134;5.424;2023-05-22T00:01:58;101733.66;;;17.64;80.05
72086;BME280;64750;52.134;5.424;2023-05-22T00:04:25;101731.13;;;17.63;80.26
72086;BME280;64750;52.134;5.424;2023-05-22T00:06:55;101727.88;;;17.70;80.09
72086;BME280;64750;52.134;5.424;2023-05-22T00:09:25;101727.75;;;17.72;80.13
72086;BME280;64750;52.134;5.424;2023-05-22T00:11:52;101725.09;;;17.72;80.21
72086;BME280;64750;52.134;5.424;2023-05-22T00:14:18;101722.56;;;17.70;80.25
72086;BME280;64750;52.134;5.424;2023-05-22T00:16:45;101724.47;;;17.68;80.14
72086;BME280;64750;52.134;5.424;2023-05-22T00:19:13;101720.13;;;17.67;80.52
72086;BME280;64750;52.134;5.424;2023-05-22T00:21:42;101719.91;;;17.70;80.60
72086;BME280;64750;52.134;5.424;2023-05-22T00:24:09;101718.22;;;17.69;79.90
72086;BME280;64750;52.134;5.424;2023-05-22T00:26:36;101705.84;;;17.57;80.26
72086;BME280;64750;52.134;5.424;2023-05-22T00:29:03;101693.28;;;17.59;80.66
72086;BME280;64750;52.134;5.424;2023-05-22T00:31:31;101695.66;;;17.51;80.41
72086;BME280;64750;52.134;5.424;2023-05-22T00:33:58;101703.72;;;17.38;81.19
72086;BME280;64750;52.134;5.424;2023-05-22T00:36:24;101697.25;;;17.42;81.43
72086;BME280;64750;52.134;5.424;2023-05-22T00:38:51;101703.38;;;17.43;81.17
72086;BME280;64750;52.134;5.424;2023-05-22T00:41:17;101701.69;;;17.42;81.17
72086;BME280;64750;52.134;5.424;2023-05-22T00:43:44;101689.59;;;17.37;81.32
72086;BME280;64750;52.134;5.424;2023-05-22T00:46:10;101690.53;;;17.25;81.79
72086;BME280;64750;52.134;5.424;2023-05-22T00:48:38;101688.69;;;17.14;82.38
72086;BME280;64750;52.134;5.424;2023-05-22T00:51:05;101687.09;;;17.12;82.53
72086;BME280;64750;52.134;5.424;2023-05-22T00:53:32;101688.06;;;17.11;82.63
72086;BME280;64750;52.134;5.424;2023-05-22T00:55:59;101684.66;;;17.09;82.98
72086;BME280;64750;52.134;5.424;2023-05-22T00:58:26;101681.56;;;17.15;82.74
72086;BME280;64750;52.134;5.424;2023-05-22T01:00:53;101680.13;;;17.22;82.38
72086;BME280;64750;52.134;5.424;2023-05-22T01:03:21;101673.69;;;17.13;82.73
72086;BME280;64750;52.134;5.424;2023-05-22T01:05:52;101671.63;;;17.05;82.79
72086;BME280;64750;52.134;5.424;2023-05-22T01:11:08;101661.94;;;17.04;83.08
72086;BME280;64750;52.134;5.424;2023-05-22T01:14:00;101664.47;;;17.06;83.21
72086;BME280;64750;52.134;5.424;2023-05-22T01:22:33;101653.97;;;17.04;83.24
72086;BME280;64750;52.134;5.424;2023-05-22T01:25:18;101651.94;;;17.08;83.36
72086;BME280;64750;52.134;5.424;2023-05-22T01:28:05;101652.56;;;17.12;83.24
72086;BME280;64750;52.134;5.424;2023-05-22T01:33:15;101652.25;;;17.16;82.92
72086;BME280;64750;52.134;5.424;2023-05-22T01:35:45;101648.84;;;17.14;82.80
72086;BME280;64750;52.134;5.424;2023-05-22T01:38:14;101654.03;;;17.16;83.26
72086;BME280;64750;52.134;5.424;2023-05-22T01:40:43;101651.25;;;17.17;83.05
72086;BME280;64750;52.134;5.424;2023-05-22T01:43:10;101655.72;;;17.17;82.78
72086;BME280;64750;52.134;5.424;2023-05-22T01:45:37;101648.38;;;17.20;82.80
72086;BME280;64750;52.134;5.424;2023-05-22T01:48:04;101643.44;;;17.27;82.65
72086;BME280;64750;52.134;5.424;2023-05-22T01:50:30;101652.03;;;17.31;82.34
72086;BME280;64750;52.134;5.424;2023-05-22T01:53:14;101643.91;;;17.21;82.16
72086;BME280;64750;52.134;5.424;2023-05-22T01:55:51;101632.16;;;17.12;82.08
72086;BME280;64750;52.134;5.424;2023-05-22T01:58:38;101631.94;;;17.15;82.28
72086;BME280;64750;52.134;5.424;2023-05-22T02:01:08;101629.28;;;17.15;82.13
72086;BME280;64750;52.134;5.424;2023-05-22T02:03:36;101627.00;;;17.22;82.05
72086;BME280;64750;52.134;5.424;2023-05-22T02:06:05;101633.16;;;17.22;81.88
72086;BME280;64750;52.134;5.424;2023-05-22T02:08:37;101621.44;;;17.25;81.80
72086;BME280;64750;52.134;5.424;2023-05-22T02:11:04;101625.94;;;17.25;81.73
72086;BME280;64750;52.134;5.424;2023-05-22T02:13:33;101627.75;;;17.24;81.74
72086;BME280;64750;52.134;5.424;2023-05-22T02:16:00;101625.09;;;17.24;81.60
72086;BME280;64750;52.134;5.424;2023-05-22T02:18:27;101619.16;;;17.20;81.62
72086;BME280;64750;52.134;5.424;2023-05-22T02:20:57;101619.63;;;17.14;81.96
72086;BME280;64750;52.134;5.424;2023-05-22T02:23:25;101620.56;;;17.13;81.68
72086;BME280;64750;52.134;5.424;2023-05-22T02:25:51;101623.34;;;17.12;81.72
72086;BME280;64750;52.134;5.424;2023-05-22T02:28:18;101619.63;;;17.14;81.81
72086;BME280;64750;52.134;5.424;2023-05-22T02:30:44;101617.81;;;17.15;81.68
72086;BME280;64750;52.134;5.424;2023-05-22T02:33:11;101607.75;;;17.07;81.59
72086;BME280;64750;52.134;5.424;2023-05-22T02:35:37;101610.03;;;17.00;81.60
72086;BME280;64750;52.134;5.424;2023-05-22T02:38:04;101612.44;;;17.03;81.93
72086;BME280;64750;52.134;5.424;2023-05-22T02:40:30;101608.63;;;17.08;81.23
72086;BME280;64750;52.134;5.424;2023-05-22T02:42:57;101611.28;;;17.08;81.52
72086;BME280;64750;52.134;5.424;2023-05-22T02:45:23;101610.06;;;17.12;81.49
72086;BME280;64750;52.134;5.424;2023-05-22T02:47:50;101615.38;;;17.12;81.15
72086;BME280;64750;52.134;5.424;2023-05-22T02:50:16;101607.25;;;17.02;80.98
72086;BME280;64750;52.134;5.424;2023-05-22T02:52:43;101602.69;;;17.04;81.25
72086;BME280;64750;52.134;5.424;2023-05-22T02:55:10;101604.03;;;17.10;81.12
72086;BME280;64750;52.134;5.424;2023-05-22T02:57:37;101596.19;;;17.08;81.44
72086;BME280;64750;52.134;5.424;2023-05-22T03:00:03;101593.16;;;17.01;81.60
72086;BME280;64750;52.134;5.424;2023-05-22T03:02:37;101598.06;;;16.95;81.57
72086;BME280;64750;52.134;5.424;2023-05-22T03:05:04;101589.75;;;16.99;81.64
72086;BME280;64750;52.134;5.424;2023-05-22T03:07:31;101591.19;;;17.03;81.37
72086;BME280;64750;52.134;5.424;2023-05-22T03:09:57;101593.25;;;17.00;81.45
72086;BME280;64750;52.134;5.424;2023-05-22T03:12:24;101595.81;;;17.01;81.62
72086;BME280;64750;52.134;5.424;2023-05-22T03:14:51;101594.84;;;17.02;81.89
72086;BME280;64750;52.134;5.424;2023-05-22T03:17:17;101601.22;;;17.00;81.98
72086;BME280;64750;52.134;5.424;2023-05-22T03:19:44;101598.91;;;16.95;82.18
72086;BME280;64750;52.134;5.424;2023-05-22T03:22:10;101598.16;;;16.93;82.35
72086;BME280;64750;52.134;5.424;2023-05-22T03:24:36;101594.25;;;16.86;82.41
72086;BME280;64750;52.134;5.424;2023-05-22T03:27:03;101598.38;;;16.90;82.37
72086;BME280;64750;52.134;5.424;2023-05-22T03:29:30;101592.63;;;16.72;82.44
72086;BME280;64750;52.134;5.424;2023-05-22T03:31:56;101600.72;;;16.70;83.10
72086;BME280;64750;52.134;5.424;2023-05-22T03:34:23;101589.88;;;16.73;83.07
72086;BME280;64750;52.134;5.424;2023-05-22T03:36:49;101590.09;;;16.70;82.83
72086;BME280;64750;52.134;5.424;2023-05-22T03:39:16;101591.75;;;16.60;82.76
72086;BME280;64750;52.134;5.424;2023-05-22T03:41:42;101590.38;;;16.54;82.99
72086;BME280;64750;52.134;5.424;2023-05-22T03:44:08;101594.50;;;16.59;83.24
72086;BME280;64750;52.134;5.424;2023-05-22T03:46:35;101599.72;;;16.60;83.12
72086;BME280;64750;52.134;5.424;2023-05-22T03:49:01;101611.78;;;16.64;82.93
72086;BME280;64750;52.134;5.424;2023-05-22T03:51:29;101605.91;;;16.48;82.92
72086;BME280;64750;52.134;5.424;2023-05-22T03:53:56;101604.00;;;16.50;82.90
72086;BME280;64750;52.134;5.424;2023-05-22T03:56:23;101602.63;;;16.44;82.71
72086;BME280;64750;52.134;5.424;2023-05-22T03:58:49;101598.91;;;16.47;82.85
72086;BME280;64750;52.134;5.424;2023-05-22T04:01:16;101597.44;;;16.43;82.87
72086;BME280;64750;52.134;5.424;2023-05-22T04:03:43;101594.28;;;16.37;83.00
72086;BME280;64750;52.134;5.424;2023-05-22T04:06:10;101589.28;;;16.33;83.10
72086;BME280;64750;52.134;5.424;2023-05-22T04:08:39;101594.44;;;16.23;83.69
72086;BME280;64750;52.134;5.424;2023-05-22T04:11:05;101596.53;;;16.31;83.54
72086;BME280;64750;52.134;5.424;2023-05-22T04:13:33;101598.13;;;16.33;83.59
72086;BME280;64750;52.134;5.424;2023-05-22T04:16:00;101591.94;;;16.33;83.45
72086;BME280;64750;52.134;5.424;2023-05-22T04:18:27;101592.38;;;16.27;83.79
72086;BME280;64750;52.134;5.424;2023-05-22T04:20:54;101600.03;;;16.31;84.04
72086;BME280;64750;52.134;5.424;2023-05-22T04:23:20;101596.19;;;16.35;83.82
72086;BME280;64750;52.134;5.424;2023-05-22T04:25:48;101604.66;;;16.40;83.49
72086;BME280;64750;52.134;5.424;2023-05-22T04:28:14;101610.13;;;16.26;83.60
72086;BME280;64750;52.134;5.424;2023-05-22T04:30:47;101621.41;;;16.17;83.95
72086;BME280;64750;52.134;5.424;2023-05-22T04:33:14;101634.44;;;16.07;84.36
72086;BME280;64750;52.134;5.424;2023-05-22T04:35:41;101635.41;;;16.06;84.47
72086;BME280;64750;52.134;5.424;2023-05-22T04:38:08;101633.38;;;16.10;84.83
72086;BME280;64750;52.134;5.424;2023-05-22T04:40:34;101639.97;;;16.17;84.74
72086;BME280;64750;52.134;5.424;2023-05-22T04:43:03;101638.13;;;16.17;84.55
72086;BME280;64750;52.134;5.424;2023-05-22T04:45:29;101648.88;;;16.03;84.63
72086;BME280;64750;52.134;5.424;2023-05-22T04:47:56;101640.63;;;16.07;84.76
72086;BME280;64750;52.134;5.424;2023-05-22T04:50:22;101652.69;;;16.12;84.66
72086;BME280;64750;52.134;5.424;2023-05-22T04:52:49;101648.13;;;16.14;84.44
72086;BME280;64750;52.134;5.424;2023-05-22T04:55:15;101662.91;;;16.05;84.70
72086;BME280;64750;52.134;5.424;2023-05-22T04:57:42;101666.28;;;16.07;84.59
72086;BME280;64750;52.134;5.424;2023-05-22T05:00:13;101656.00;;;16.02;84.50
72086;BME280;64750;52.134;5.424;2023-05-22T05:02:41;101665.44;;;15.94;84.81
72086;BME280;64750;52.134;5.424;2023-05-22T05:05:08;101664.38;;;15.96;84.95
72086;BME280;64750;52.134;5.424;2023-05-22T05:07:38;101673.28;;;15.95;84.86
72086;BME280;64750;52.134;5.424;2023-05-22T05:10:05;101665.66;;;15.90;85.19
72086;BME280;64750;52.134;5.424;2023-05-22T05:12:32;101668.41;;;15.89;85.38
72086;BME280;64750;52.134;5.424;2023-05-22T05:14:59;101660.34;;;15.90;85.45
72086;BME280;64750;52.134;5.424;2023-05-22T05:17:25;101664.06;;;15.88;85.38
72086;BME280;64750;52.134;5.424;2023-05-22T05:19:52;101654.84;;;15.94;85.44
72086;BME280;64750;52.134;5.424;2023-05-22T05:22:18;101652.50;;;16.02;85.34
72086;BME280;64750;52.134;5.424;2023-05-22T05:24:45;101656.53;;;16.07;85.19
72086;BME280;64750;52.134;5.424;2023-05-22T05:27:11;101652.06;;;16.08;85.02
72086;BME280;64750;52.134;5.424;2023-05-22T05:29:38;101641.69;;;16.05;85.30
72086;BME280;64750;52.134;5.424;2023-05-22T05:32:04;101649.09;;;16.13;85.38
72086;BME280;64750;52.134;5.424;2023-05-22T05:34:31;101656.31;;;16.11;85.51
72086;BME280;64750;52.134;5.424;2023-05-22T05:36:58;101645.47;;;16.14;85.66
72086;BME280;64750;52.134;5.424;2023-05-22T05:39:24;101644.09;;;16.21;85.54
72086;BME280;64750;52.134;5.424;2023-05-22T05:41:51;101641.00;;;16.27;85.32
72086;BME280;64750;52.134;5.424;2023-05-22T05:44:17;101642.97;;;16.36;85.30
72086;BME280;64750;52.134;5.424;2023-05-22T05:46:44;101641.78;;;16.40;85.26
72086;BME280;64750;52.134;5.424;2023-05-22T05:49:11;101640.97;;;16.40;85.16
72086;BME280;64750;52.134;5.424;2023-05-22T05:51:37;101639.69;;;16.33;85.59
72086;BME280;64750;52.134;5.424;2023-05-22T05:54:04;101648.84;;;16.29;85.38
72086;BME280;64750;52.134;5.424;2023-05-22T05:56:31;101643.84;;;16.24;85.94
72086;BME280;64750;52.134;5.424;2023-05-22T05:58:57;101640.25;;;16.25;86.08
72086;BME280;64750;52.134;5.424;2023-05-22T06:01:25;101633.78;;;16.29;86.10
72086;BME280;64750;52.134;5.424;2023-05-22T06:03:52;101629.19;;;16.31;86.30
72086;BME280;64750;52.134;5.424;2023-05-22T06:06:19;101646.59;;;16.35;86.34
72086;BME280;64750;52.134;5.424;2023-05-22T06:08:45;101635.25;;;16.33;86.78
72086;BME280;64750;52.134;5.424;2023-05-22T06:11:11;101641.72;;;16.42;86.63
72086;BME280;64750;52.134;5.424;2023-05-22T06:13:38;101635.78;;;16.38;86.71
72086;BME280;64750;52.134;5.424;2023-05-22T06:16:05;101633.84;;;16.40;86.75
72086;BME280;64750;52.134;5.424;2023-05-22T06:18:32;101639.06;;;16.42;86.80
72086;BME280;64750;52.134;5.424;2023-05-22T06:20:58;101640.28;;;16.49;87.11
72086;BME280;64750;52.134;5.424;2023-05-22T06:23:25;101647.69;;;16.57;86.84
72086;BME280;64750;52.134;5.424;2023-05-22T06:25:51;101647.47;;;16.60;87.18
72086;BME280;64750;52.134;5.424;2023-05-22T06:28:18;101643.63;;;16.64;86.95
72086;BME280;64750;52.134;5.424;2023-05-22T06:30:44;101653.31;;;16.65;86.76
72086;BME280;64750;52.134;5.424;2023-05-22T06:33:11;101651.25;;;16.69;87.50
72086;BME280;64750;52.134;5.424;2023-05-22T06:35:37;101660.78;;;16.71;87.61
72086;BME280;64750;52.134;5.424;2023-05-22T06:38:04;101655.28;;;16.75;87.24
72086;BME280;64750;52.134;5.424;2023-05-22T06:40:30;101656.22;;;16.73;87.39
72086;BME280;64750;52.134;5.424;2023-05-22T06:42:57;101658.44;;;16.80;87.79
72086;BME280;64750;52.134;5.424;2023-05-22T06:45:24;101671.25;;;16.86;87.68
72086;BME280;64750;52.134;5.424;2023-05-22T06:47:52;101667.41;;;16.90;87.79
72086;BME280;64750;52.134;5.424;2023-05-22T06:50:20;101656.38;;;16.96;87.71
72086;BME280;64750;52.134;5.424;2023-05-22T06:52:47;101660.50;;;17.00;87.57
72086;BME280;64750;52.134;5.424;2023-05-22T06:55:14;101666.31;;;17.05;87.78
72086;BME280;64750;52.134;5.424;2023-05-22T06:57:40;101666.81;;;17.11;87.91
72086;BME280;64750;52.134;5.424;2023-05-22T07:00:07;101665.72;;;17.13;88.29
72086;BME280;64750;52.134;5.424;2023-05-22T07:02:37;101666.13;;;17.20;88.43
72086;BME280;64750;52.134;5.424;2023-05-22T07:05:04;101663.13;;;17.25;88.69
72086;BME280;64750;52.134;5.424;2023-05-22T07:07:32;101674.38;;;17.28;88.02
72086;BME280;64750;52.134;5.424;2023-05-22T07:09:58;101677.72;;;17.30;87.55
72086;BME280;64750;52.134;5.424;2023-05-22T07:12:26;101675.00;;;17.32;87.66
72086;BME280;64750;52.134;5.424;2023-05-22T07:14:52;101674.50;;;17.38;88.48
72086;BME280;64750;52.134;5.424;2023-05-22T07:17:19;101678.50;;;17.44;88.32
72086;BME280;64750;52.134;5.424;2023-05-22T07:19:47;101678.88;;;17.50;88.11
72086;BME280;64750;52.134;5.424;2023-05-22T07:22:14;101676.84;;;17.54;87.28
72086;BME280;64750;52.134;5.424;2023-05-22T07:24:41;101679.25;;;17.57;87.21
72086;BME280;64750;52.134;5.424;2023-05-22T07:27:08;101677.22;;;17.61;86.90
72086;BME280;64750;52.134;5.424;2023-05-22T07:29:34;101680.38;;;17.66;86.63
72086;BME280;64750;52.134;5.424;2023-05-22T07:32:01;101678.56;;;17.66;85.60
72086;BME280;64750;52.134;5.424;2023-05-22T07:34:28;101680.03;;;17.70;86.03
72086;BME280;64750;52.134;5.424;2023-05-22T07:37:04;101677.00;;;17.75;85.91
72086;BME280;64750;52.134;5.424;2023-05-22T07:39:31;101676.66;;;17.80;85.78
72086;BME280;64750;52.134;5.424;2023-05-22T07:41:58;101678.22;;;17.82;86.30
72086;BME280;64750;52.134;5.424;2023-05-22T07:44:26;101676.06;;;17.87;85.59
72086;BME280;64750;52.134;5.424;2023-05-22T07:46:53;101674.00;;;17.91;86.05
72086;BME280;64750;52.134;5.424;2023-05-22T07:49:21;101672.56;;;17.98;86.14
72086;BME280;64750;52.134;5.424;2023-05-22T07:51:48;101665.06;;;18.03;85.70
72086;BME280;64750;52.134;5.424;2023-05-22T07:54:15;101680.56;;;18.10;86.07
72086;BME280;64750;52.134;5.424;2023-05-22T07:56:43;101687.34;;;18.14;86.04
72086;BME280;64750;52.134;5.424;2023-05-22T07:59:11;101683.47;;;18.18;85.64
72086;BME280;64750;52.134;5.424;2023-05-22T08:01:38;101684.66;;;18.25;85.90
72086;BME280;64750;52.134;5.424;2023-05-22T08:04:05;101678.03;;;18.31;85.33
72086;BME280;64750;52.134;5.424;2023-05-22T08:06:32;101675.72;;;18.38;85.35
72086;BME280;64750;52.134;5.424;2023-05-22T08:09:02;101686.81;;;18.43;84.88
72086;BME280;64750;52.134;5.424;2023-05-22T08:11:30;101680.19;;;18.48;84.39
72086;BME280;64750;52.134;5.424;2023-05-22T08:13:56;101694.81;;;18.54;83.76
72086;BME280;64750;52.134;5.424;2023-05-22T08:16:23;101692.88;;;18.56;83.71
72086;BME280;64750;52.134;5.424;2023-05-22T08:18:49;101692.25;;;18.64;84.32
72086;BME280;64750;52.134;5.424;2023-05-22T08:21:16;101689.94;;;18.71;83.62
72086;BME280;64750;52.134;5.424;2023-05-22T08:23:42;101679.63;;;18.77;83.63
72086;BME280;64750;52.134;5.424;2023-05-22T08:26:09;101693.03;;;18.87;82.20
72086;BME280;64750;52.134;5.424;2023-05-22T08:28:35;101683.84;;;18.91;82.96
72086;BME280;64750;52.134;5.424;2023-05-22T08:31:02;101685.03;;;18.98;81.93
72086;BME280;64750;52.134;5.424;2023-05-22T08:33:29;101686.22;;;19.06;81.75
72086;BME280;64750;52.134;5.424;2023-05-22T08:35:55;101680.38;;;19.12;82.04
72086;BME280;64750;52.134;5.424;2023-05-22T08:38:22;101680.31;;;19.23;82.74
72086;BME280;64750;52.134;5.424;2023-05-22T08:40:49;101673.38;;;19.32;81.76
72086;BME280;64750;52.134;5.424;2023-05-22T08:43:15;101671.28;;;19.35;81.99
72086;BME280;64750;52.134;5.424;2023-05-22T08:45:42;101673.44;;;19.42;81.00
72086;BME280;64750;52.134;5.424;2023-05-22T08:48:12;101667.84;;;19.45;80.64
72086;BME280;64750;52.134;5.424;2023-05-22T08:50:41;101672.66;;;19.51;81.03
72086;BME280;64750;52.134;5.424;2023-05-22T08:53:11;101669.91;;;19.62;80.53
72086;BME280;64750;52.134;5.424;2023-05-22T08:55:38;101664.31;;;19.65;79.68
72086;BME280;64750;52.134;5.424;2023-05-22T08:58:06;101668.28;;;19.71;80.08
72086;BME280;64750;52.134;5.424;2023-05-22T09:00:33;101674.00;;;19.88;79.41
72086;BME280;64750;52.134;5.424;2023-05-22T09:03:00;101669.25;;;19.91;79.03
72086;BME280;64750;52.134;5.424;2023-05-22T09:05:27;101670.94;;;19.92;77.50
72086;BME280;64750;52.134;5.424;2023-05-22T09:07:54;101669.84;;;19.95;78.25
72086;BME280;64750;52.134;5.424;2023-05-22T09:10:23;101667.91;;;20.07;78.62
72086;BME280;64750;52.134;5.424;2023-05-22T09:13:50;101666.41;;;20.14;78.04
72086;BME280;64750;52.134;5.424;2023-05-22T09:16:11;101663.84;;;20.12;75.74
72086;BME280;64750;52.134;5.424;2023-05-22T09:18:39;101665.97;;;20.09;76.58
72086;BME280;64750;52.134;5.424;2023-05-22T09:21:07;101659.53;;;20.21;78.04
72086;BME280;64750;52.134;5.424;2023-05-22T09:23:53;101652.72;;;20.38;76.08
72086;BME280;64750;52.134;5.424;2023-05-22T09:26:20;101657.63;;;20.43;76.09
72086;BME280;64750;52.134;5.424;2023-05-22T09:28:46;101652.03;;;20.46;77.07
72086;BME280;64750;52.134;5.424;2023-05-22T09:31:13;101656.09;;;20.50;74.87
72086;BME280;64750;52.134;5.424;2023-05-22T09:33:42;101653.28;;;20.52;75.73
72086;BME280;64750;52.134;5.424;2023-05-22T09:36:09;101651.34;;;20.63;76.14
72086;BME280;64750;52.134;5.424;2023-05-22T09:38:36;101651.97;;;20.77;76.31
72086;BME280;64750;52.134;5.424;2023-05-22T09:41:02;101647.31;;;20.79;75.42
72086;BME280;64750;52.134;5.424;2023-05-22T09:43:29;101640.84;;;20.72;74.07
72086;BME280;64750;52.134;5.424;2023-05-22T09:45:56;101649.97;;;20.79;74.78
72086;BME280;64750;52.134;5.424;2023-05-22T09:48:25;101645.06;;;20.84;73.13
72086;BME280;64750;52.134;5.424;2023-05-22T09:50:52;101646.91;;;20.93;72.88
72086;BME280;64750;52.134;5.424;2023-05-22T09:53:25;101649.00;;;21.00;73.82
72086;BME280;64750;52.134;5.424;2023-05-22T09:55:55;101641.25;;;20.96;71.12
72086;BME280;64750;52.134;5.424;2023-05-22T09:58:23;101652.50;;;20.90;71.87
72086;BME280;64750;52.134;5.424;2023-05-22T10:00:51;101636.50;;;21.00;72.29
72086;BME280;64750;52.134;5.424;2023-05-22T10:03:21;101644.09;;;20.95;70.03
72086;BME280;64750;52.134;5.424;2023-05-22T10:05:51;101644.66;;;20.89;70.96
72086;BME280;64750;52.134;5.424;2023-05-22T10:08:27;101642.81;;;20.89;71.15
72086;BME280;64750;52.134;5.424;2023-05-22T10:10:54;101637.47;;;20.89;70.75
72086;BME280;64750;52.134;5.424;2023-05-22T10:13:20;101650.13;;;20.87;71.62
72086;BME280;64750;52.134;5.424;2023-05-22T10:15:48;101645.63;;;20.97;72.30
72086;BME280;64750;52.134;5.424;2023-05-22T10:18:15;101645.19;;;21.12;71.86
72086;BME280;64750;52.134;5.424;2023-05-22T10:20:43;101645.34;;;21.20;71.31
72086;BME280;64750;52.134;5.424;2023-05-22T10:23:10;101644.47;;;21.20;69.68
72086;BME280;64750;52.134;5.424;2023-05-22T10:25:37;101633.66;;;21.11;69.42
72086;BME280;64750;52.134;5.424;2023-05-22T10:28:05;101637.03;;;21.13;69.93
72086;BME280;64750;52.134;5.424;2023-05-22T10:30:57;101642.25;;;21.15;68.28
72086;BME280;64750;52.134;5.424;2023-05-22T10:33:32;101643.66;;;21.19;67.52
72086;BME280;64750;52.134;5.424;2023-05-22T10:36:04;101634.91;;;21.17;67.51
72086;BME280;64750;52.134;5.424;2023-05-22T10:41:24;101635.59;;;21.39;69.57
72086;BME280;64750;52.134;5.424;2023-05-22T10:43:55;101629.66;;;21.45;68.01
72086;BME280;64750;52.134;5.424;2023-05-22T10:46:21;101630.06;;;21.50;66.35
72086;BME280;64750;52.134;5.424;2023-05-22T10:48:51;101626.53;;;21.50;67.32
72086;BME280;64750;52.134;5.424;2023-05-22T10:51:19;101629.22;;;21.59;67.67
72086;BME280;64750;52.134;5.424;2023-05-22T10:53:51;101619.34;;;21.70;67.13
72086;BME280;64750;52.134;5.424;2023-05-22T10:56:20;101625.34;;;21.82;68.49
72086;BME280;64750;52.134;5.424;2023-05-22T10:58:55;101626.88;;;21.84;67.50
72086;BME280;64750;52.134;5.424;2023-05-22T11:01:25;101632.38;;;21.83;66.34
72086;BME280;64750;52.134;5.424;2023-05-22T11:04:00;101632.09;;;21.86;64.96
72086;BME280;64750;52.134;5.424;2023-05-22T11:17:19;101615.31;;;21.93;66.82
72086;BME280;64750;52.134;5.424;2023-05-22T11:19:58;101621.44;;;22.04;65.68
72086;BME280;64750;52.134;5.424;2023-05-22T11:22:49;101617.72;;;22.15;66.45
72086;BME280;64750;52.134;5.424;2023-05-22T11:25:17;101615.19;;;22.13;65.47
72086;BME280;64750;52.134;5.424;2023-05-22T11:27:46;101601.06;;;22.21;64.62
72086;BME280;64750;52.134;5.424;2023-05-22T11:30:14;101615.38;;;22.29;64.60
72086;BME280;64750;52.134;5.424;2023-05-22T11:32:42;101614.53;;;22.29;63.08
72086;BME280;64750;52.134;5.424;2023-05-22T11:35:17;101601.53;;;22.34;64.26
72086;BME280;64750;52.134;5.424;2023-05-22T11:37:44;101597.50;;;22.48;64.36
72086;BME280;64750;52.134;5.424;2023-05-22T11:40:13;101600.50;;;22.63;63.67
72086;BME280;64750;52.134;5.424;2023-05-22T11:42:40;101594.59;;;22.59;61.96
72086;BME280;64750;52.134;5.424;2023-05-22T11:45:07;101595.22;;;22.53;61.76
72086;BME280;64750;52.134;5.424;2023-05-22T11:47:34;101589.72;;;22.55;62.26
72086;BME280;64750;52.134;5.424;2023-05-22T11:50:01;101594.94;;;22.56;62.03
72086;BME280;64750;52.134;5.424;2023-05-22T11:52:33;101585.25;;;22.64;62.68
72086;BME280;64750;52.134;5.424;2023-05-22T11:55:00;101591.53;;;22.72;60.80
72086;BME280;64750;52.134;5.424;2023-05-22T11:57:27;101585.97;;;22.66;59.79
72086;BME280;64750;52.134;5.424;2023-05-22T11:59:54;101584.66;;;22.70;60.94
72086;BME280;64750;52.134;5.424;2023-05-22T12:02:23;101589.94;;;22.80;60.31
72086;BME280;64750;52.134;5.424;2023-05-22T12:04:53;101595.75;;;22.75;58.85
72086;BME280;64750;52.134;5.424;2023-05-22T12:07:21;101588.03;;;22.72;59.17
72086;BME280;64750;52.134;5.424;2023-05-22T12:09:48;101584.56;;;22.80;58.73
72086;BME280;64750;52.134;5.424;2023-05-22T12:12:14;101587.22;;;22.98;58.46
72086;BME280;64750;52.134;5.424;2023-05-22T12:14:44;101596.84;;;23.08;58.47
72086;BME280;64750;52.134;5.424;2023-05-22T12:17:12;101586.81;;;23.10;59.42
72086;BME280;64750;52.134;5.424;2023-05-22T12:19:39;101597.22;;;23.14;60.51
72086;BME280;64750;52.134;5.424;2023-05-22T12:22:07;101589.34;;;23.12;59.96
72086;BME280;64750;52.134;5.424;2023-05-22T12:24:44;101597.72;;;23.09;59.99
72086;BME280;64750;52.134;5.424;2023-05-22T12:27:14;101592.44;;;22.99;58.56
72086;BME280;64750;52.134;5.424;2023-05-22T12:29:41;101600.25;;;22.92;59.31
72086;BME280;64750;52.134;5.424;2023-05-22T12:32:10;101590.44;;;23.01;58.63
72086;BME280;64750;52.134;5.424;2023-05-22T12:34:46;101594.28;;;22.99;59.37
72086;BME280;64750;52.134;5.424;2023-05-22T12:37:23;101588.91;;;22.99;60.45
72086;BME280;64750;52.134;5.424;2023-05-22T12:40:01;101587.56;;;22.94;59.44
72086;BME280;64750;52.134;5.424;2023-05-22T12:42:28;101589.88;;;22.89;59.99
72086;BME280;64750;52.134;5.424;2023-05-22T12:44:56;101581.41;;;22.84;59.97
72086;BME280;64750;52.134;5.424;2023-05-22T12:47:23;101587.41;;;22.78;60.02
72086;BME280;64750;52.134;5.424;2023-05-22T12:49:51;101583.09;;;22.85;60.81
72086;BME280;64750;52.134;5.424;2023-05-22T12:52:18;101587.06;;;22.99;61.03
72086;BME280;64750;52.134;5.424;2023-05-22T12:54:44;101595.47;;;23.04;60.45
72086;BME280;64750;52.134;5.424;2023-05-22T12:57:11;101603.00;;;23.01;59.54
72086;BME280;64750;52.134;5.424;2023-05-22T12:59:37;101582.41;;;23.01;59.12
72086;BME280;64750;52.134;5.424;2023-05-22T13:02:04;101587.44;;;23.04;60.80
72086;BME280;64750;52.134;5.424;2023-05-22T13:04:31;101594.66;;;23.04;61.41
72086;BME280;64750;52.134;5.424;2023-05-22T13:06:58;101595.44;;;22.96;62.93
72086;BME280;64750;52.134;5.424;2023-05-22T13:09:24;101619.25;;;22.81;63.90
72086;BME280;64750;52.134;5.424;2023-05-22T13:11:51;101605.41;;;22.68;64.21
72086;BME280;64750;52.134;5.424;2023-05-22T13:14:17;101603.41;;;22.52;64.66
72086;BME280;64750;52.134;5.424;2023-05-22T13:16:44;101610.41;;;22.44;65.67
72086;BME280;64750;52.134;5.424;2023-05-22T13:19:10;101607.44;;;22.38;65.50
72086;BME280;64750;52.134;5.424;2023-05-22T13:21:37;101621.28;;;22.33;65.37